Kaisei Maru — JD3114 — position and weather

sailwx.info

Track history (hours):
 
Tides and Currents Weather Stations Pressure Air Temp Water Temp Dewpoint Dewpoint Depression Visibility Wind Speed Wind Dir Waves Ship Positions

Kaisei Maru

Last reported at 2018-Jan-20 15:00 UTC. Time now 2018-Jan-20 15:16 UTC.
Position N 33°49' E 131°32'.

Length 52 m; draft 2.7 m.

Type: Tanker. MMSI: 431001837.

Date/timePositionNaut miles runAvg speedWind from/ knotsBaromVisibWave heightAir tempDewpointWater temp
2018-Jan-20 15:00N 33°49' E 131°32'611.5
2018-Jan-20 14:30N 33°51' E 131°25'611.4
2018-Jan-20 14:00N 33°52' E 131°19'511.0
2018-Jan-20 13:30N 33°54' E 131°12'510.9
2018-Jan-20 13:00N 33°56' E 131°07'510.7
2018-Jan-20 12:30N 33°58' E 131°01'5 9.6
2018-Jan-20 12:00N 33°55' E 130°56'4 7.9
2018-Jan-20 11:30N 33°57' E 130°51'510.8
2018-Jan-20 11:00N 33°58' E 130°45'611.4
2018-Jan-20 10:30N 33°57' E 130°38'611.2
2018-Jan-20 10:00N 33°56' E 130°32'510.4
2018-Jan-20 09:30N 33°53' E 130°27'611.1
2018-Jan-20 09:00N 33°48' E 130°23'611.4
2018-Jan-20 08:30N 33°44' E 130°18'5 9.5
2018-Jan-20 08:00N 33°39' E 130°17'611.3
2018-Jan-20 07:30N 33°37' E 130°24'1 1.9
2018-Jan-20 07:00N 33°37' E 130°25'0 0.0
2018-Jan-20 06:29N 33°37' E 130°25'0 0.0
2018-Jan-20 06:00N 33°37' E 130°25'0 0.0
2018-Jan-20 05:30N 33°37' E 130°25'0 0.0
2018-Jan-20 05:00N 33°37' E 130°25'0 0.0
2018-Jan-20 04:30N 33°37' E 130°25'0 0.0
2018-Jan-20 04:00N 33°37' E 130°25'0 0.0
2018-Jan-20 03:30N 33°37' E 130°25'0 0.0
2018-Jan-20 02:58N 33°37' E 130°25'0 0.0
2018-Jan-20 02:30N 33°37' E 130°25'0 0.0
2018-Jan-20 02:00N 33°37' E 130°25'0 0.0
2018-Jan-20 01:27N 33°37' E 130°25'0 0.0
2018-Jan-20 01:00N 33°37' E 130°25'0 0.0
2018-Jan-20 00:30N 33°37' E 130°25'0 0.0
2018-Jan-20 00:00N 33°37' E 130°25'0 0.0
2018-Jan-19 23:29N 33°37' E 130°25'0 0.0
2018-Jan-19 23:00N 33°37' E 130°25'0 0.0
2018-Jan-19 22:29N 33°37' E 130°25'0 0.0
2018-Jan-19 22:00N 33°37' E 130°25'0 0.0
2018-Jan-19 21:30N 33°37' E 130°25'0 0.0
2018-Jan-19 20:59N 33°37' E 130°25'0 0.0
2018-Jan-19 20:30N 33°37' E 130°25'0 0.0
2018-Jan-19 20:00N 33°37' E 130°25'0 0.0
2018-Jan-19 19:30N 33°37' E 130°25'0 0.0
2018-Jan-19 19:00N 33°37' E 130°25'0 0.0
2018-Jan-19 18:30N 33°37' E 130°25'0 0.0
2018-Jan-19 18:00N 33°37' E 130°25'0 0.0
2018-Jan-19 17:30N 33°37' E 130°25'0 0.0
2018-Jan-19 17:00N 33°37' E 130°25'0 0.0
2018-Jan-19 16:30N 33°37' E 130°25'0 0.0
2018-Jan-19 16:00N 33°37' E 130°25'0 0.0
2018-Jan-19 15:30N 33°37' E 130°25'0 0.0
2018-Jan-19 15:00N 33°37' E 130°25'0 0.0
2018-Jan-19 14:30N 33°37' E 130°25'0 0.0
2018-Jan-19 14:00N 33°37' E 130°25'0 0.0
2018-Jan-19 13:30N 33°37' E 130°25'0 0.0
2018-Jan-19 13:00N 33°37' E 130°25'0 0.0
2018-Jan-19 12:30N 33°37' E 130°25'0 0.0
2018-Jan-19 12:00N 33°37' E 130°25'0 0.0
2018-Jan-19 11:30N 33°37' E 130°25'0 0.0
2018-Jan-19 11:00N 33°37' E 130°25'0 0.0
2018-Jan-19 10:30N 33°37' E 130°25'0 0.0
2018-Jan-19 09:59N 33°37' E 130°25'0 0.0
2018-Jan-19 09:30N 33°37' E 130°25'0 0.0
2018-Jan-19 08:59N 33°37' E 130°25'0 0.0
2018-Jan-19 08:30N 33°37' E 130°25'0 0.0
2018-Jan-19 08:00N 33°37' E 130°25'0 0.0
2018-Jan-19 07:30N 33°37' E 130°25'0 0.0
2018-Jan-19 07:00N 33°37' E 130°25'0 0.0
2018-Jan-19 06:30N 33°37' E 130°25'1 2.1
2018-Jan-19 06:00N 33°37' E 130°23'510.3
2018-Jan-19 05:30N 33°39' E 130°18'5 9.2
2018-Jan-19 05:00N 33°44' E 130°17'510.5
2018-Jan-19 04:30N 33°48' E 130°21'510.6
2018-Jan-19 04:00N 33°52' E 130°26'5 9.5
2018-Jan-19 03:30N 33°55' E 130°29'510.6
2018-Jan-19 03:00N 33°57' E 130°35'510.6
2018-Jan-19 02:30N 33°58' E 130°42'611.2
2018-Jan-19 02:00N 33°58' E 130°48'611.5
2018-Jan-19 01:30N 33°55' E 130°54'612.7
2018-Jan-19 01:00N 33°59' E 131°00'611.8
2018-Jan-19 00:30N 33°56' E 131°07'611.9
2018-Jan-19 00:01N 33°53' E 131°12'611.7
2018-Jan-18 23:30N 33°52' E 131°19'611.8
2018-Jan-18 23:00N 33°51' E 131°27'611.9
2018-Jan-18 22:30N 33°49' E 131°33'611.9
2018-Jan-18 21:59N 33°48' E 131°41'611.7
2018-Jan-18 21:31N 33°47' E 131°47'611.5
2018-Jan-18 20:57N 33°46' E 131°55'510.9
2018-Jan-18 20:30N 33°46' E 132°01'611.3
2018-Jan-18 19:59N 33°48' E 132°07'611.4
2018-Jan-18 19:30N 33°50' E 132°13'611.5
2018-Jan-18 18:59N 33°50' E 132°21'611.2
2018-Jan-18 18:27N 33°53' E 132°27'912.8
2018-Jan-18 17:46N 33°59' E 132°35'312.3
2018-Jan-18 17:30N 34°02' E 132°37'9010.6
2018-Jan-18 08:59N 34°25' E 134°23'510.7
2018-Jan-18 08:30N 34°27' E 134°28'510.6
2018-Jan-18 08:00N 34°29' E 134°34'510.6
2018-Jan-18 07:30N 34°31' E 134°40'510.5
2018-Jan-18 07:00N 34°33' E 134°46'5 9.7
2018-Jan-18 06:30N 34°35' E 134°52'4 8.5
2018-Jan-18 06:00N 34°37' E 134°56'4 8.4
2018-Jan-18 05:30N 34°37' E 135°02'4 7.7
2018-Jan-18 05:00N 34°35' E 135°05'5 9.8
2018-Jan-18 04:30N 34°32' E 135°10'510.3
2018-Jan-18 04:00N 34°29' E 135°15'5 9.3
2018-Jan-18 03:30N 34°26' E 135°19'0 0.0
2018-Jan-18 03:00N 34°26' E 135°19'0 0.0
2018-Jan-18 02:30N 34°26' E 135°19'0 0.0
2018-Jan-18 02:00N 34°26' E 135°19'0 0.0
2018-Jan-18 01:30N 34°26' E 135°19'0 0.0
2018-Jan-18 01:00N 34°26' E 135°19'0 0.0
2018-Jan-18 00:01N 34°26' E 135°19'0 0.0
2018-Jan-17 23:57N 34°26' E 135°19'  
Track history (hours):
 
Tides and Currents Weather Stations Pressure Air Temp Water Temp Dewpoint Dewpoint Depression Visibility Wind Speed Wind Dir Waves Ship Positions

Kaisei Maru

Last reported at 2018-Jan-20 15:00 UTC. Time now 2018-Jan-20 15:16 UTC.
Position N 33°49' E 131°32'.

Length 52 m; draft 2.7 m.

Type: Tanker. MMSI: 431001837.

Date/timePositionNaut miles runAvg speedWind from/ knotsBaromVisibWave heightAir tempDewpointWater temp
2018-Jan-20 15:00N 33°49' E 131°32'611.5
2018-Jan-20 14:30N 33°51' E 131°25'611.4
2018-Jan-20 14:00N 33°52' E 131°19'511.0
2018-Jan-20 13:30N 33°54' E 131°12'510.9
2018-Jan-20 13:00N 33°56' E 131°07'510.7
2018-Jan-20 12:30N 33°58' E 131°01'5 9.6
2018-Jan-20 12:00N 33°55' E 130°56'4 7.9
2018-Jan-20 11:30N 33°57' E 130°51'510.8
2018-Jan-20 11:00N 33°58' E 130°45'611.4
2018-Jan-20 10:30N 33°57' E 130°38'611.2
2018-Jan-20 10:00N 33°56' E 130°32'510.4
2018-Jan-20 09:30N 33°53' E 130°27'611.1
2018-Jan-20 09:00N 33°48' E 130°23'611.4
2018-Jan-20 08:30N 33°44' E 130°18'5 9.5
2018-Jan-20 08:00N 33°39' E 130°17'611.3
2018-Jan-20 07:30N 33°37' E 130°24'1 1.9
2018-Jan-20 07:00N 33°37' E 130°25'0 0.0
2018-Jan-20 06:29N 33°37' E 130°25'0 0.0
2018-Jan-20 06:00N 33°37' E 130°25'0 0.0
2018-Jan-20 05:30N 33°37' E 130°25'0 0.0
2018-Jan-20 05:00N 33°37' E 130°25'0 0.0
2018-Jan-20 04:30N 33°37' E 130°25'0 0.0
2018-Jan-20 04:00N 33°37' E 130°25'0 0.0
2018-Jan-20 03:30N 33°37' E 130°25'0 0.0
2018-Jan-20 02:58N 33°37' E 130°25'0 0.0
2018-Jan-20 02:30N 33°37' E 130°25'0 0.0
2018-Jan-20 02:00N 33°37' E 130°25'0 0.0
2018-Jan-20 01:27N 33°37' E 130°25'0 0.0
2018-Jan-20 01:00N 33°37' E 130°25'0 0.0
2018-Jan-20 00:30N 33°37' E 130°25'0 0.0
2018-Jan-20 00:00N 33°37' E 130°25'0 0.0
2018-Jan-19 23:29N 33°37' E 130°25'0 0.0
2018-Jan-19 23:00N 33°37' E 130°25'0 0.0
2018-Jan-19 22:29N 33°37' E 130°25'0 0.0
2018-Jan-19 22:00N 33°37' E 130°25'0 0.0
2018-Jan-19 21:30N 33°37' E 130°25'0 0.0
2018-Jan-19 20:59N 33°37' E 130°25'0 0.0
2018-Jan-19 20:30N 33°37' E 130°25'0 0.0
2018-Jan-19 20:00N 33°37' E 130°25'0 0.0
2018-Jan-19 19:30N 33°37' E 130°25'0 0.0
2018-Jan-19 19:00N 33°37' E 130°25'0 0.0
2018-Jan-19 18:30N 33°37' E 130°25'0 0.0
2018-Jan-19 18:00N 33°37' E 130°25'0 0.0
2018-Jan-19 17:30N 33°37' E 130°25'0 0.0
2018-Jan-19 17:00N 33°37' E 130°25'0 0.0
2018-Jan-19 16:30N 33°37' E 130°25'0 0.0
2018-Jan-19 16:00N 33°37' E 130°25'0 0.0
2018-Jan-19 15:30N 33°37' E 130°25'0 0.0
2018-Jan-19 15:00N 33°37' E 130°25'0 0.0
2018-Jan-19 14:30N 33°37' E 130°25'0 0.0
2018-Jan-19 14:00N 33°37' E 130°25'0 0.0
2018-Jan-19 13:30N 33°37' E 130°25'0 0.0
2018-Jan-19 13:00N 33°37' E 130°25'0 0.0
2018-Jan-19 12:30N 33°37' E 130°25'0 0.0
2018-Jan-19 12:00N 33°37' E 130°25'0 0.0
2018-Jan-19 11:30N 33°37' E 130°25'0 0.0
2018-Jan-19 11:00N 33°37' E 130°25'0 0.0
2018-Jan-19 10:30N 33°37' E 130°25'0 0.0
2018-Jan-19 09:59N 33°37' E 130°25'0 0.0
2018-Jan-19 09:30N 33°37' E 130°25'0 0.0
2018-Jan-19 08:59N 33°37' E 130°25'0 0.0
2018-Jan-19 08:30N 33°37' E 130°25'0 0.0
2018-Jan-19 08:00N 33°37' E 130°25'0 0.0
2018-Jan-19 07:30N 33°37' E 130°25'0 0.0
2018-Jan-19 07:00N 33°37' E 130°25'0 0.0
2018-Jan-19 06:30N 33°37' E 130°25'1 2.1
2018-Jan-19 06:00N 33°37' E 130°23'510.3
2018-Jan-19 05:30N 33°39' E 130°18'5 9.2
2018-Jan-19 05:00N 33°44' E 130°17'510.5
2018-Jan-19 04:30N 33°48' E 130°21'510.6
2018-Jan-19 04:00N 33°52' E 130°26'5 9.5
2018-Jan-19 03:30N 33°55' E 130°29'510.6
2018-Jan-19 03:00N 33°57' E 130°35'510.6
2018-Jan-19 02:30N 33°58' E 130°42'611.2
2018-Jan-19 02:00N 33°58' E 130°48'611.5
2018-Jan-19 01:30N 33°55' E 130°54'612.7
2018-Jan-19 01:00N 33°59' E 131°00'611.8
2018-Jan-19 00:30N 33°56' E 131°07'611.9
2018-Jan-19 00:01N 33°53' E 131°12'611.7
2018-Jan-18 23:30N 33°52' E 131°19'611.8
2018-Jan-18 23:00N 33°51' E 131°27'611.9
2018-Jan-18 22:30N 33°49' E 131°33'611.9
2018-Jan-18 21:59N 33°48' E 131°41'611.7
2018-Jan-18 21:31N 33°47' E 131°47'611.5
2018-Jan-18 20:57N 33°46' E 131°55'510.9
2018-Jan-18 20:30N 33°46' E 132°01'611.3
2018-Jan-18 19:59N 33°48' E 132°07'611.4
2018-Jan-18 19:30N 33°50' E 132°13'611.5
2018-Jan-18 18:59N 33°50' E 132°21'611.2
2018-Jan-18 18:27N 33°53' E 132°27'912.8
2018-Jan-18 17:46N 33°59' E 132°35'312.3
2018-Jan-18 17:30N 34°02' E 132°37'9010.6
2018-Jan-18 08:59N 34°25' E 134°23'510.7
2018-Jan-18 08:30N 34°27' E 134°28'510.6
2018-Jan-18 08:00N 34°29' E 134°34'510.6
2018-Jan-18 07:30N 34°31' E 134°40'510.5
2018-Jan-18 07:00N 34°33' E 134°46'5 9.7
2018-Jan-18 06:30N 34°35' E 134°52'4 8.5
2018-Jan-18 06:00N 34°37' E 134°56'4 8.4
2018-Jan-18 05:30N 34°37' E 135°02'4 7.7
2018-Jan-18 05:00N 34°35' E 135°05'5 9.8
2018-Jan-18 04:30N 34°32' E 135°10'510.3
2018-Jan-18 04:00N 34°29' E 135°15'5 9.3
2018-Jan-18 03:30N 34°26' E 135°19'0 0.0
2018-Jan-18 03:00N 34°26' E 135°19'0 0.0
2018-Jan-18 02:30N 34°26' E 135°19'0 0.0
2018-Jan-18 02:00N 34°26' E 135°19'0 0.0
2018-Jan-18 01:30N 34°26' E 135°19'0 0.0
2018-Jan-18 01:00N 34°26' E 135°19'0 0.0
2018-Jan-18 00:01N 34°26' E 135°19'0 0.0
2018-Jan-17 23:57N 34°26' E 135°19'  

Dump ship's entire track history